Quick Links (Output Below):   Max & Min Temps   /   Climate Reports   /   Zone Forecasts
River Forecasts   /   Forestry Forecasts   /   Aviation Forecasts   /   Radars   /   Features

Terminal Aerodrome Forecast (Monticello)

Pick a Site:
Arkadelphia | El Dorado | Fayetteville | Fort Smith | Harrison | Highfill | Hot Springs | Jonesboro
Little Rock | Monticello | Mountain Home | Pine Bluff | Texarkana
 Forecast 

KLLQ 190825Z 1908/2006 04004KT P6SM SCT008 OVC040
      TEMPO 1909/1913 5SM BR BKN008
     FM191700 05005KT P6SM -RA OVC015
     FM200200 05003KT P6SM SCT008 OVC012=


 Latest METARs (Observations) 
How to Decode METARs
09Z KLLQ 190853Z AUTO 03004KT 10SM OVC043 07/05 A3017 RMK AO2 SLP216
         T00720050 56014
         
08Z KLLQ 190753Z AUTO 04004KT 10SM FEW033 OVC042 07/06 A3018 RMK AO2
         SLP220 T00720056
         
07Z KLLQ 190653Z AUTO 05004KT 10SM FEW006 OVC039 07/06 A3020 RMK AO2
         SLP226 T00720056
         
06Z KLLQ 190553Z AUTO 06004KT 10SM BKN007 BKN025 OVC041 07/06 A3021
         RMK AO2 SLP231 T00720056 10083 20072 401000044 56002
         
05Z KLLQ 190453Z AUTO 04006KT 10SM FEW006 OVC041 08/06 A3022 RMK AO2
         SLP232 T00780056
         
04Z KLLQ 190353Z AUTO 03005KT 10SM SCT007 BKN013 OVC040 08/06 A3022
         RMK AO2 SLP234 T00780056
         
03Z KLLQ 190253Z AUTO 03004KT 10SM OVC039 08/06 A3020 RMK AO2 SLP227
         T00780056 50009
         
02Z KLLQ 190153Z AUTO 00000KT 10SM SCT010 OVC039 08/06 A3020 RMK AO2
         SLP227 T00780061
         
01Z KLLQ 190053Z AUTO 03004KT 10SM OVC008 08/06 A3019 RMK AO2 SLP224
         T00830061
         
00Z KLLQ 182353Z AUTO 02004KT 10SM OVC011 09/07 A3017 RMK AO2 CIG
         007V012 SLP218 T00890067 10100 20083 53006
         
***** Today's Observations (Above) *****


Back to Main Page
http://www.srh.noaa.gov/lzk/qfcst.php

USA.gov is the U.S. government's official web portal to all federal, state and local government web resources and services.